Aérodrome :
LOGIN :

S'inscrire | Disclaimer

   EN    FR    IT 

 










Légende :    VFR   VFR Marginal   IFR   IFR Intensif   IFR Très Intensif
Visi : 
Plafond : 
>= 8 km
>= 3000ft
5 à 8 km
1000 à 3000 ft
1500m à 5 km
500 à 1000 ft
800 à 1500m
200 à 500 ft
< 800m
< 200 ft
Symboles :   Orages  Brouillard  Fortes neiges  Fortes précipitations  Vent > 20 kt
SIGMETs :   Divers  Orages  Givrage  Turbulence  Onde Orograph.  Cendres Volcan.







- Altitude de l'aérodrome : 247 ft
- Code IATA : BLL


EKBI - Billund

DERNIER METAR :
  • 161950Z AUTO 25014KT 9999 RA SCT008/// OVC032/// 06/04 Q0991

METARs EXPIRÉS :
  • 161920Z AUTO 25014KT 9999 +SHRA OVC006/// 07/06 Q0991
  • 161850Z AUTO 22015G25KT 190V250 9999 OVC007/// 07/06 Q0991
  • 161820Z AUTO 23015G27KT 7000 BKN008/// 07/06 Q0991
  • 161750Z AUTO 23017KT 9999 OVC008/// 07/06 Q0991
  • 161720Z AUTO 22018KT 9999 OVC007/// 07/06 Q0992

TAF TAF EKBI
Valide du 16 à 18h jusqu'au 17 à 18h UTC


161702Z 1618/1718 24015KT 9999 SCT008 BKN015
TEMPO 1618/1624 24020G30KT 4000 RADZ BR BKN008
TEMPO 1700/1706 4000 SHRASN BR BKN008 BKN015CB
BECMG 1703/1706 28010KT
TEMPO 1709/1718 2000 SHSN BKN005 BKN015CB
BECMG 1710/1713 35010KT
Pas de NOTAMs connus pour ce terrain.



MET'MAP, la Météo Aéronautique d'un coup d'oeil ! - Copyright ORBIFLY Décembre 2007 - Disclaimer

ORBIFLY MET'MAP TEAM :

Programmation & Développement : Alexandra Zaïnal
Conception & Développement : Baudouin d'Aumeries
Co-Programmation & Développement : Marc-Olivier Méhu
Soutien technique & logistique : Manuel Goepfert

Contact : metmap@orbifly.com




SOURCES & CREDITS :

   NOAA